sensor_id;sensor_type;location;lat;lon;timestamp;temperature;humidity
5466;DHT22;2755;50.728;7.108;2023-07-13T00:02:52;16.90;1.00
5466;DHT22;2755;50.728;7.108;2023-07-13T00:05:21;16.80;1.00
5466;DHT22;2755;50.728;7.108;2023-07-13T00:10:14;16.50;1.00
5466;DHT22;2755;50.728;7.108;2023-07-13T00:12:39;16.20;1.00
5466;DHT22;2755;50.728;7.108;2023-07-13T00:15:11;16.40;1.00
5466;DHT22;2755;50.728;7.108;2023-07-13T00:20:05;16.00;1.00
5466;DHT22;2755;50.728;7.108;2023-07-13T00:24:57;16.00;1.00
5466;DHT22;2755;50.728;7.108;2023-07-13T00:27:22;15.80;1.00
5466;DHT22;2755;50.728;7.108;2023-07-13T00:29:48;16.30;1.00
5466;DHT22;2755;50.728;7.108;2023-07-13T00:32:14;16.30;1.00
5466;DHT22;2755;50.728;7.108;2023-07-13T00:34:40;16.30;1.00
5466;DHT22;2755;50.728;7.108;2023-07-13T00:37:06;16.00;1.00
5466;DHT22;2755;50.728;7.108;2023-07-13T00:39:33;15.80;1.00
5466;DHT22;2755;50.728;7.108;2023-07-13T00:41:59;16.30;1.00
5466;DHT22;2755;50.728;7.108;2023-07-13T00:44:25;16.30;1.00
5466;DHT22;2755;50.728;7.108;2023-07-13T00:46:51;15.60;1.00
5466;DHT22;2755;50.728;7.108;2023-07-13T00:49:20;16.00;1.00
5466;DHT22;2755;50.728;7.108;2023-07-13T00:52:06;16.00;1.00
5466;DHT22;2755;50.728;7.108;2023-07-13T00:54:38;16.00;1.00
5466;DHT22;2755;50.728;7.108;2023-07-13T00:57:08;15.90;1.00
5466;DHT22;2755;50.728;7.108;2023-07-13T00:59:36;15.50;1.00
5466;DHT22;2755;50.728;7.108;2023-07-13T01:02:03;16.10;1.00
5466;DHT22;2755;50.728;7.108;2023-07-13T01:04:29;16.10;1.00
5466;DHT22;2755;50.728;7.108;2023-07-13T01:09:22;16.00;1.00
5466;DHT22;2755;50.728;7.108;2023-07-13T01:11:48;16.00;1.00
5466;DHT22;2755;50.728;7.108;2023-07-13T01:14:14;15.10;1.00
5466;DHT22;2755;50.728;7.108;2023-07-13T01:16:42;15.90;1.00
5466;DHT22;2755;50.728;7.108;2023-07-13T01:19:44;15.90;1.00
5466;DHT22;2755;50.728;7.108;2023-07-13T01:24:38;16.30;1.00
5466;DHT22;2755;50.728;7.108;2023-07-13T01:27:05;15.90;1.00
5466;DHT22;2755;50.728;7.108;2023-07-13T01:29:32;16.00;1.00
5466;DHT22;2755;50.728;7.108;2023-07-13T01:31:58;16.00;1.00
5466;DHT22;2755;50.728;7.108;2023-07-13T01:34:25;15.90;1.00
5466;DHT22;2755;50.728;7.108;2023-07-13T01:36:51;15.40;1.00
5466;DHT22;2755;50.728;7.108;2023-07-13T01:39:21;15.40;1.00
5466;DHT22;2755;50.728;7.108;2023-07-13T01:41:47;15.90;1.00
5466;DHT22;2755;50.728;7.108;2023-07-13T01:44:13;16.10;1.00
5466;DHT22;2755;50.728;7.108;2023-07-13T01:46:39;15.50;1.00
5466;DHT22;2755;50.728;7.108;2023-07-13T01:49:04;15.70;1.00
5466;DHT22;2755;50.728;7.108;2023-07-13T01:51:30;15.80;1.00
5466;DHT22;2755;50.728;7.108;2023-07-13T01:53:56;15.50;1.00
5466;DHT22;2755;50.728;7.108;2023-07-13T01:56:21;15.80;1.00
5466;DHT22;2755;50.728;7.108;2023-07-13T02:03:39;15.90;1.00
5466;DHT22;2755;50.728;7.108;2023-07-13T02:10:59;15.70;1.00
5466;DHT22;2755;50.728;7.108;2023-07-13T02:13:24;15.50;1.00
5466;DHT22;2755;50.728;7.108;2023-07-13T02:15:51;15.60;1.00
5466;DHT22;2755;50.728;7.108;2023-07-13T02:18:17;15.30;1.00
5466;DHT22;2755;50.728;7.108;2023-07-13T02:20:43;15.50;1.00
5466;DHT22;2755;50.728;7.108;2023-07-13T02:23:09;15.70;1.00
5466;DHT22;2755;50.728;7.108;2023-07-13T02:25:34;15.50;1.00
5466;DHT22;2755;50.728;7.108;2023-07-13T02:30:27;15.60;1.00
5466;DHT22;2755;50.728;7.108;2023-07-13T02:32:58;16.20;1.00
5466;DHT22;2755;50.728;7.108;2023-07-13T02:35:23;15.60;1.00
5466;DHT22;2755;50.728;7.108;2023-07-13T02:37:49;16.00;1.00
5466;DHT22;2755;50.728;7.108;2023-07-13T02:40:15;15.80;1.00
5466;DHT22;2755;50.728;7.108;2023-07-13T02:42:41;15.40;1.00
5466;DHT22;2755;50.728;7.108;2023-07-13T02:45:08;16.00;1.00
5466;DHT22;2755;50.728;7.108;2023-07-13T02:47:34;15.50;1.00
5466;DHT22;2755;50.728;7.108;2023-07-13T02:50:00;15.30;1.00
5466;DHT22;2755;50.728;7.108;2023-07-13T02:52:26;15.90;1.00
5466;DHT22;2755;50.728;7.108;2023-07-13T02:54:52;15.20;1.00
5466;DHT22;2755;50.728;7.108;2023-07-13T02:57:17;15.40;1.00
5466;DHT22;2755;50.728;7.108;2023-07-13T02:59:43;15.30;1.00
5466;DHT22;2755;50.728;7.108;2023-07-13T03:02:09;15.70;1.00
5466;DHT22;2755;50.728;7.108;2023-07-13T03:04:36;15.40;1.00
5466;DHT22;2755;50.728;7.108;2023-07-13T03:07:02;15.70;1.00
5466;DHT22;2755;50.728;7.108;2023-07-13T03:09:28;15.20;1.00
5466;DHT22;2755;50.728;7.108;2023-07-13T03:11:54;15.40;1.00
5466;DHT22;2755;50.728;7.108;2023-07-13T03:14:21;15.50;1.00
5466;DHT22;2755;50.728;7.108;2023-07-13T03:16:47;15.50;1.00
5466;DHT22;2755;50.728;7.108;2023-07-13T03:19:12;15.40;1.00
5466;DHT22;2755;50.728;7.108;2023-07-13T03:21:38;15.30;1.00
5466;DHT22;2755;50.728;7.108;2023-07-13T03:24:03;15.10;1.00
5466;DHT22;2755;50.728;7.108;2023-07-13T03:26:29;15.20;1.00
5466;DHT22;2755;50.728;7.108;2023-07-13T03:28:55;15.60;1.00
5466;DHT22;2755;50.728;7.108;2023-07-13T03:31:24;15.20;1.00
5466;DHT22;2755;50.728;7.108;2023-07-13T03:33:50;15.40;1.00
5466;DHT22;2755;50.728;7.108;2023-07-13T03:36:20;15.20;1.00
5466;DHT22;2755;50.728;7.108;2023-07-13T03:38:47;15.30;1.00
5466;DHT22;2755;50.728;7.108;2023-07-13T03:41:14;15.20;1.00
5466;DHT22;2755;50.728;7.108;2023-07-13T03:43:39;15.30;1.00
5466;DHT22;2755;50.728;7.108;2023-07-13T03:46:05;14.90;1.00
5466;DHT22;2755;50.728;7.108;2023-07-13T03:48:31;14.90;1.00
5466;DHT22;2755;50.728;7.108;2023-07-13T03:55:48;14.90;1.00
5466;DHT22;2755;50.728;7.108;2023-07-13T04:00:54;15.70;1.00
5466;DHT22;2755;50.728;7.108;2023-07-13T04:03:20;15.80;1.00
5466;DHT22;2755;50.728;7.108;2023-07-13T04:08:12;15.40;1.00
5466;DHT22;2755;50.728;7.108;2023-07-13T04:10:38;15.40;1.00
5466;DHT22;2755;50.728;7.108;2023-07-13T04:13:04;15.20;1.00
5466;DHT22;2755;50.728;7.108;2023-07-13T04:17:57;15.10;1.00
5466;DHT22;2755;50.728;7.108;2023-07-13T04:20:24;15.60;1.00
5466;DHT22;2755;50.728;7.108;2023-07-13T04:22:49;16.30;1.00
5466;DHT22;2755;50.728;7.108;2023-07-13T04:25:15;15.30;1.00
5466;DHT22;2755;50.728;7.108;2023-07-13T04:30:07;14.60;1.00
5466;DHT22;2755;50.728;7.108;2023-07-13T04:34:59;15.60;1.00
5466;DHT22;2755;50.728;7.108;2023-07-13T04:37:26;15.30;1.00
5466;DHT22;2755;50.728;7.108;2023-07-13T04:39:52;15.00;1.00
5466;DHT22;2755;50.728;7.108;2023-07-13T04:44:50;15.00;1.00
5466;DHT22;2755;50.728;7.108;2023-07-13T04:47:17;15.80;1.00
5466;DHT22;2755;50.728;7.108;2023-07-13T04:49:43;14.70;1.00
5466;DHT22;2755;50.728;7.108;2023-07-13T04:52:08;15.70;1.00
5466;DHT22;2755;50.728;7.108;2023-07-13T04:54:34;15.80;1.00
5466;DHT22;2755;50.728;7.108;2023-07-13T04:57:00;16.00;1.00
5466;DHT22;2755;50.728;7.108;2023-07-13T04:59:26;16.20;1.00
5466;DHT22;2755;50.728;7.108;2023-07-13T05:01:55;16.70;1.00
5466;DHT22;2755;50.728;7.108;2023-07-13T05:06:47;16.90;1.00
5466;DHT22;2755;50.728;7.108;2023-07-13T05:09:12;16.80;1.00
5466;DHT22;2755;50.728;7.108;2023-07-13T05:11:38;17.10;1.00
5466;DHT22;2755;50.728;7.108;2023-07-13T05:18:57;18.40;1.00
5466;DHT22;2755;50.728;7.108;2023-07-13T05:21:22;16.90;1.00
5466;DHT22;2755;50.728;7.108;2023-07-13T05:23:48;18.30;1.00
5466;DHT22;2755;50.728;7.108;2023-07-13T05:26:13;17.10;1.00
5466;DHT22;2755;50.728;7.108;2023-07-13T05:31:07;19.50;1.00
5466;DHT22;2755;50.728;7.108;2023-07-13T05:33:33;19.30;1.00
5466;DHT22;2755;50.728;7.108;2023-07-13T05:38:26;19.20;1.00
5466;DHT22;2755;50.728;7.108;2023-07-13T05:40:54;19.60;1.00
5466;DHT22;2755;50.728;7.108;2023-07-13T05:43:23;19.80;1.00
5466;DHT22;2755;50.728;7.108;2023-07-13T05:45:52;20.00;1.00
5466;DHT22;2755;50.728;7.108;2023-07-13T05:48:18;19.90;1.00
5466;DHT22;2755;50.728;7.108;2023-07-13T05:53:11;20.80;1.00
5466;DHT22;2755;50.728;7.108;2023-07-13T05:55:44;21.40;1.00
5466;DHT22;2755;50.728;7.108;2023-07-13T05:58:11;22.10;1.00
5466;DHT22;2755;50.728;7.108;2023-07-13T06:00:36;21.60;1.00
5466;DHT22;2755;50.728;7.108;2023-07-13T06:03:02;22.30;1.00
5466;DHT22;2755;50.728;7.108;2023-07-13T06:05:28;22.40;1.00
5466;DHT22;2755;50.728;7.108;2023-07-13T06:07:54;23.60;1.00
5466;DHT22;2755;50.728;7.108;2023-07-13T06:10:20;20.70;1.00
5466;DHT22;2755;50.728;7.108;2023-07-13T06:15:12;22.80;1.00
5466;DHT22;2755;50.728;7.108;2023-07-13T06:17:37;23.00;1.00
5466;DHT22;2755;50.728;7.108;2023-07-13T06:20:03;22.70;1.00
5466;DHT22;2755;50.728;7.108;2023-07-13T06:29:47;21.90;1.00
5466;DHT22;2755;50.728;7.108;2023-07-13T06:32:13;22.00;1.00
5466;DHT22;2755;50.728;7.108;2023-07-13T06:41:56;21.90;1.00
5466;DHT22;2755;50.728;7.108;2023-07-13T06:44:22;21.80;1.00
5466;DHT22;2755;50.728;7.108;2023-07-13T06:46:48;21.20;1.00
5466;DHT22;2755;50.728;7.108;2023-07-13T06:54:05;21.30;1.00
5466;DHT22;2755;50.728;7.108;2023-07-13T07:01:23;21.50;1.00
5466;DHT22;2755;50.728;7.108;2023-07-13T07:06:20;22.50;1.00
5466;DHT22;2755;50.728;7.108;2023-07-13T07:08:49;23.50;1.00
5466;DHT22;2755;50.728;7.108;2023-07-13T07:11:20;23.30;1.00
5466;DHT22;2755;50.728;7.108;2023-07-13T07:13:47;24.00;1.00
5466;DHT22;2755;50.728;7.108;2023-07-13T07:16:13;23.20;1.00
5466;DHT22;2755;50.728;7.108;2023-07-13T07:18:39;24.00;1.00
5466;DHT22;2755;50.728;7.108;2023-07-13T07:23:31;24.00;1.00
5466;DHT22;2755;50.728;7.108;2023-07-13T07:25:56;24.40;1.00
5466;DHT22;2755;50.728;7.108;2023-07-13T07:33:15;25.10;1.00
5466;DHT22;2755;50.728;7.108;2023-07-13T07:35:42;25.00;1.00
5466;DHT22;2755;50.728;7.108;2023-07-13T07:38:08;25.40;1.00
5466;DHT22;2755;50.728;7.108;2023-07-13T07:40:37;25.60;1.00
5466;DHT22;2755;50.728;7.108;2023-07-13T07:47:55;26.10;1.00
5466;DHT22;2755;50.728;7.108;2023-07-13T07:50:27;26.90;1.00
5466;DHT22;2755;50.728;7.108;2023-07-13T07:52:53;25.90;1.00
5466;DHT22;2755;50.728;7.108;2023-07-13T07:55:19;25.70;1.00
5466;DHT22;2755;50.728;7.108;2023-07-13T07:57:45;26.30;1.00
5466;DHT22;2755;50.728;7.108;2023-07-13T08:00:17;26.20;1.00
5466;DHT22;2755;50.728;7.108;2023-07-13T08:07:37;26.20;1.00
5466;DHT22;2755;50.728;7.108;2023-07-13T08:12:30;26.30;1.00
5466;DHT22;2755;50.728;7.108;2023-07-13T08:14:58;26.40;1.00
5466;DHT22;2755;50.728;7.108;2023-07-13T08:17:25;26.00;1.00
5466;DHT22;2755;50.728;7.108;2023-07-13T08:19:51;26.50;1.00
5466;DHT22;2755;50.728;7.108;2023-07-13T08:22:17;26.80;1.00
5466;DHT22;2755;50.728;7.108;2023-07-13T08:24:42;27.10;1.00
5466;DHT22;2755;50.728;7.108;2023-07-13T08:27:10;27.10;1.00
5466;DHT22;2755;50.728;7.108;2023-07-13T08:29:37;26.40;1.00
5466;DHT22;2755;50.728;7.108;2023-07-13T08:32:02;25.40;1.00
5466;DHT22;2755;50.728;7.108;2023-07-13T08:39:21;27.40;1.00
5466;DHT22;2755;50.728;7.108;2023-07-13T08:41:51;27.50;1.00
5466;DHT22;2755;50.728;7.108;2023-07-13T08:46:53;28.20;1.00
5466;DHT22;2755;50.728;7.108;2023-07-13T08:49:21;28.30;1.00
5466;DHT22;2755;50.728;7.108;2023-07-13T08:51:56;28.80;1.00
5466;DHT22;2755;50.728;7.108;2023-07-13T08:54:42;28.80;1.00
5466;DHT22;2755;50.728;7.108;2023-07-13T08:57:18;28.60;1.00
5466;DHT22;2755;50.728;7.108;2023-07-13T09:02:46;29.00;1.00
5466;DHT22;2755;50.728;7.108;2023-07-13T09:10:14;29.40;1.00
5466;DHT22;2755;50.728;7.108;2023-07-13T09:15:39;29.00;1.00
5466;DHT22;2755;50.728;7.108;2023-07-13T09:20:49;28.70;1.00
5466;DHT22;2755;50.728;7.108;2023-07-13T09:23:19;28.40;1.00
5466;DHT22;2755;50.728;7.108;2023-07-13T09:25:48;28.10;1.00
5466;DHT22;2755;50.728;7.108;2023-07-13T09:30:52;26.70;1.00
5466;DHT22;2755;50.728;7.108;2023-07-13T09:33:21;26.10;1.00
5466;DHT22;2755;50.728;7.108;2023-07-13T09:43:16;25.30;1.00
5466;DHT22;2755;50.728;7.108;2023-07-13T09:48:14;26.00;1.00
5466;DHT22;2755;50.728;7.108;2023-07-13T09:50:40;26.90;1.00
5466;DHT22;2755;50.728;7.108;2023-07-13T09:55:44;26.00;1.00
5466;DHT22;2755;50.728;7.108;2023-07-13T10:00:41;26.50;1.00
5466;DHT22;2755;50.728;7.108;2023-07-13T10:03:22;25.60;1.00
5466;DHT22;2755;50.728;7.108;2023-07-13T10:11:20;26.30;1.00
5466;DHT22;2755;50.728;7.108;2023-07-13T10:13:57;26.40;1.00
5466;DHT22;2755;50.728;7.108;2023-07-13T10:16:26;26.70;1.00
5466;DHT22;2755;50.728;7.108;2023-07-13T10:18:56;27.30;1.00
5466;DHT22;2755;50.728;7.108;2023-07-13T10:21:27;28.00;1.00
5466;DHT22;2755;50.728;7.108;2023-07-13T10:26:29;28.70;1.00
5466;DHT22;2755;50.728;7.108;2023-07-13T10:29:01;28.10;1.00
5466;DHT22;2755;50.728;7.108;2023-07-13T10:33:53;27.40;1.00
5466;DHT22;2755;50.728;7.108;2023-07-13T10:36:35;26.90;1.00
5466;DHT22;2755;50.728;7.108;2023-07-13T10:39:06;27.50;1.00
5466;DHT22;2755;50.728;7.108;2023-07-13T10:41:39;27.80;1.00
5466;DHT22;2755;50.728;7.108;2023-07-13T10:44:14;27.90;1.00
5466;DHT22;2755;50.728;7.108;2023-07-13T10:46:43;27.70;1.00
5466;DHT22;2755;50.728;7.108;2023-07-13T10:49:11;27.70;1.00
5466;DHT22;2755;50.728;7.108;2023-07-13T10:51:37;27.30;1.00
5466;DHT22;2755;50.728;7.108;2023-07-13T10:54:19;28.10;1.00
5466;DHT22;2755;50.728;7.108;2023-07-13T10:56:50;28.30;1.00
5466;DHT22;2755;50.728;7.108;2023-07-13T10:59:20;27.40;1.00
5466;DHT22;2755;50.728;7.108;2023-07-13T11:07:00;26.50;1.00
5466;DHT22;2755;50.728;7.108;2023-07-13T11:12:10;26.30;1.00
5466;DHT22;2755;50.728;7.108;2023-07-13T11:17:34;25.80;1.00
5466;DHT22;2755;50.728;7.108;2023-07-13T11:22:50;25.60;1.00
5466;DHT22;2755;50.728;7.108;2023-07-13T11:25:29;25.70;1.00
5466;DHT22;2755;50.728;7.108;2023-07-13T11:28:20;25.70;1.00
5466;DHT22;2755;50.728;7.108;2023-07-13T11:35:57;25.90;1.00
5466;DHT22;2755;50.728;7.108;2023-07-13T11:41:05;25.80;1.00
5466;DHT22;2755;50.728;7.108;2023-07-13T11:46:14;25.60;1.00
5466;DHT22;2755;50.728;7.108;2023-07-13T11:48:40;25.50;1.00
5466;DHT22;2755;50.728;7.108;2023-07-13T11:51:07;25.20;1.00
5466;DHT22;2755;50.728;7.108;2023-07-13T11:53:44;25.50;1.00
5466;DHT22;2755;50.728;7.108;2023-07-13T12:01:04;25.20;1.00
5466;DHT22;2755;50.728;7.108;2023-07-13T12:11:17;24.40;1.00
5466;DHT22;2755;50.728;7.108;2023-07-13T12:13:44;24.40;1.00
5466;DHT22;2755;50.728;7.108;2023-07-13T12:18:48;25.70;1.00
5466;DHT22;2755;50.728;7.108;2023-07-13T12:21:17;24.70;1.00
5466;DHT22;2755;50.728;7.108;2023-07-13T12:28:44;23.90;1.00
5466;DHT22;2755;50.728;7.108;2023-07-13T12:36:22;24.60;1.00
5466;DHT22;2755;50.728;7.108;2023-07-13T12:41:15;24.10;1.00
5466;DHT22;2755;50.728;7.108;2023-07-13T12:46:21;23.90;1.00
5466;DHT22;2755;50.728;7.108;2023-07-13T12:48:51;24.40;1.00
5466;DHT22;2755;50.728;7.108;2023-07-13T12:51:20;24.50;1.00
5466;DHT22;2755;50.728;7.108;2023-07-13T12:53:55;24.60;1.00
5466;DHT22;2755;50.728;7.108;2023-07-13T13:01:25;24.60;1.00
5466;DHT22;2755;50.728;7.108;2023-07-13T13:03:52;26.30;1.00
5466;DHT22;2755;50.728;7.108;2023-07-13T13:06:23;24.90;1.00
5466;DHT22;2755;50.728;7.108;2023-07-13T13:08:52;25.30;1.00
5466;DHT22;2755;50.728;7.108;2023-07-13T13:11:19;24.80;1.00
5466;DHT22;2755;50.728;7.108;2023-07-13T13:16:30;24.90;1.00
5466;DHT22;2755;50.728;7.108;2023-07-13T13:18:59;24.90;1.00
5466;DHT22;2755;50.728;7.108;2023-07-13T13:21:25;25.20;1.00
5466;DHT22;2755;50.728;7.108;2023-07-13T13:23:51;25.90;1.00
5466;DHT22;2755;50.728;7.108;2023-07-13T13:28:45;25.50;1.00
5466;DHT22;2755;50.728;7.108;2023-07-13T13:31:11;25.60;1.00
5466;DHT22;2755;50.728;7.108;2023-07-13T13:33:44;25.70;1.00
5466;DHT22;2755;50.728;7.108;2023-07-13T13:38:49;25.80;1.00
5466;DHT22;2755;50.728;7.108;2023-07-13T13:41:16;25.80;1.00
5466;DHT22;2755;50.728;7.108;2023-07-13T13:46:18;26.50;1.00
5466;DHT22;2755;50.728;7.108;2023-07-13T13:48:44;26.80;1.00
5466;DHT22;2755;50.728;7.108;2023-07-13T13:53:44;24.80;1.00
5466;DHT22;2755;50.728;7.108;2023-07-13T13:56:11;26.40;1.00
5466;DHT22;2755;50.728;7.108;2023-07-13T14:08:23;25.90;1.00
5466;DHT22;2755;50.728;7.108;2023-07-13T14:20:44;26.00;1.00
5466;DHT22;2755;50.728;7.108;2023-07-13T14:25:39;26.00;1.00
5466;DHT22;2755;50.728;7.108;2023-07-13T14:28:19;25.90;1.00
5466;DHT22;2755;50.728;7.108;2023-07-13T14:35:38;26.30;1.00
5466;DHT22;2755;50.728;7.108;2023-07-13T14:38:05;25.60;1.00
5466;DHT22;2755;50.728;7.108;2023-07-13T14:40:33;26.20;1.00
5466;DHT22;2755;50.728;7.108;2023-07-13T14:45:25;25.70;1.00
5466;DHT22;2755;50.728;7.108;2023-07-13T14:47:51;26.10;1.00
5466;DHT22;2755;50.728;7.108;2023-07-13T14:50:26;25.90;1.00
5466;DHT22;2755;50.728;7.108;2023-07-13T14:52:54;26.30;1.00
5466;DHT22;2755;50.728;7.108;2023-07-13T14:55:19;25.60;1.00
5466;DHT22;2755;50.728;7.108;2023-07-13T15:02:45;25.50;1.00
5466;DHT22;2755;50.728;7.108;2023-07-13T15:05:14;25.20;1.00
5466;DHT22;2755;50.728;7.108;2023-07-13T15:07:41;24.90;1.00
5466;DHT22;2755;50.728;7.108;2023-07-13T15:10:15;25.20;1.00
5466;DHT22;2755;50.728;7.108;2023-07-13T15:12:40;25.10;1.00
5466;DHT22;2755;50.728;7.108;2023-07-13T15:17:43;25.80;1.00
5466;DHT22;2755;50.728;7.108;2023-07-13T15:20:21;26.00;1.00
5466;DHT22;2755;50.728;7.108;2023-07-13T15:22:49;25.40;1.00
5466;DHT22;2755;50.728;7.108;2023-07-13T15:25:18;26.10;1.00
5466;DHT22;2755;50.728;7.108;2023-07-13T15:27:46;25.90;1.00
5466;DHT22;2755;50.728;7.108;2023-07-13T15:35:08;25.90;1.00
5466;DHT22;2755;50.728;7.108;2023-07-13T15:40:04;26.10;1.00
5466;DHT22;2755;50.728;7.108;2023-07-13T15:49:49;25.20;1.00
5466;DHT22;2755;50.728;7.108;2023-07-13T15:52:19;25.50;1.00
5466;DHT22;2755;50.728;7.108;2023-07-13T15:54:47;24.10;1.00
5466;DHT22;2755;50.728;7.108;2023-07-13T15:57:13;25.30;1.00
5466;DHT22;2755;50.728;7.108;2023-07-13T15:59:39;25.10;1.00
5466;DHT22;2755;50.728;7.108;2023-07-13T16:02:19;25.20;1.00
5466;DHT22;2755;50.728;7.108;2023-07-13T16:04:46;25.90;1.00
5466;DHT22;2755;50.728;7.108;2023-07-13T16:07:13;23.90;1.00
5466;DHT22;2755;50.728;7.108;2023-07-13T16:09:42;24.70;1.00
5466;DHT22;2755;50.728;7.108;2023-07-13T16:12:12;24.80;1.00
5466;DHT22;2755;50.728;7.108;2023-07-13T16:14:39;24.40;1.00
5466;DHT22;2755;50.728;7.108;2023-07-13T16:17:05;24.40;1.00
5466;DHT22;2755;50.728;7.108;2023-07-13T16:19:32;24.40;1.00
5466;DHT22;2755;50.728;7.108;2023-07-13T16:21:59;24.60;1.00
5466;DHT22;2755;50.728;7.108;2023-07-13T16:24:26;24.10;1.00
5466;DHT22;2755;50.728;7.108;2023-07-13T16:29:24;24.40;1.00
5466;DHT22;2755;50.728;7.108;2023-07-13T16:32:01;24.30;1.00
5466;DHT22;2755;50.728;7.108;2023-07-13T16:34:28;24.30;1.00
5466;DHT22;2755;50.728;7.108;2023-07-13T16:39:21;23.60;1.00
5466;DHT22;2755;50.728;7.108;2023-07-13T16:41:54;23.80;1.00
5466;DHT22;2755;50.728;7.108;2023-07-13T16:44:21;23.70;1.00
5466;DHT22;2755;50.728;7.108;2023-07-13T16:51:53;23.40;1.00
5466;DHT22;2755;50.728;7.108;2023-07-13T16:54:21;23.20;1.00
5466;DHT22;2755;50.728;7.108;2023-07-13T16:56:48;22.00;1.00
5466;DHT22;2755;50.728;7.108;2023-07-13T17:01:43;23.30;1.00
5466;DHT22;2755;50.728;7.108;2023-07-13T17:04:10;23.20;1.00
5466;DHT22;2755;50.728;7.108;2023-07-13T17:06:36;22.80;1.00
5466;DHT22;2755;50.728;7.108;2023-07-13T17:09:02;23.10;1.00
5466;DHT22;2755;50.728;7.108;2023-07-13T17:11:32;24.00;1.00
5466;DHT22;2755;50.728;7.108;2023-07-13T17:13:58;23.40;1.00
5466;DHT22;2755;50.728;7.108;2023-07-13T17:18:51;22.30;1.00
5466;DHT22;2755;50.728;7.108;2023-07-13T17:21:17;22.50;1.00
5466;DHT22;2755;50.728;7.108;2023-07-13T17:23:43;22.20;1.00
5466;DHT22;2755;50.728;7.108;2023-07-13T17:33:30;21.90;1.00
5466;DHT22;2755;50.728;7.108;2023-07-13T17:35:59;22.00;1.00
5466;DHT22;2755;50.728;7.108;2023-07-13T17:38:43;22.00;1.00
5466;DHT22;2755;50.728;7.108;2023-07-13T17:41:10;22.10;1.00
5466;DHT22;2755;50.728;7.108;2023-07-13T17:43:43;22.10;1.00
5466;DHT22;2755;50.728;7.108;2023-07-13T17:46:29;22.10;1.00
5466;DHT22;2755;50.728;7.108;2023-07-13T17:51:22;21.80;1.00
5466;DHT22;2755;50.728;7.108;2023-07-13T17:53:49;22.10;1.00
5466;DHT22;2755;50.728;7.108;2023-07-13T17:56:16;22.20;1.00
5466;DHT22;2755;50.728;7.108;2023-07-13T17:58:42;22.30;1.00
5466;DHT22;2755;50.728;7.108;2023-07-13T18:01:16;21.90;1.00
5466;DHT22;2755;50.728;7.108;2023-07-13T18:03:43;21.90;1.00
5466;DHT22;2755;50.728;7.108;2023-07-13T18:06:16;21.80;1.00
5466;DHT22;2755;50.728;7.108;2023-07-13T18:08:55;22.70;1.00
5466;DHT22;2755;50.728;7.108;2023-07-13T18:11:21;23.20;1.00
5466;DHT22;2755;50.728;7.108;2023-07-13T18:16:20;21.80;1.00
5466;DHT22;2755;50.728;7.108;2023-07-13T18:21:14;21.40;1.00
5466;DHT22;2755;50.728;7.108;2023-07-13T18:26:11;21.90;1.00
5466;DHT22;2755;50.728;7.108;2023-07-13T18:33:32;21.40;1.00
5466;DHT22;2755;50.728;7.108;2023-07-13T18:36:00;21.30;1.00
5466;DHT22;2755;50.728;7.108;2023-07-13T18:45:58;21.10;1.00
5466;DHT22;2755;50.728;7.108;2023-07-13T18:48:28;21.20;1.00
5466;DHT22;2755;50.728;7.108;2023-07-13T19:00:45;21.40;1.00
5466;DHT22;2755;50.728;7.108;2023-07-13T19:05:44;20.80;1.00
5466;DHT22;2755;50.728;7.108;2023-07-13T19:10:43;20.80;1.00
5466;DHT22;2755;50.728;7.108;2023-07-13T19:13:19;19.40;1.00
5466;DHT22;2755;50.728;7.108;2023-07-13T19:18:16;20.40;1.00
5466;DHT22;2755;50.728;7.108;2023-07-13T19:20:42;20.20;1.00
5466;DHT22;2755;50.728;7.108;2023-07-13T19:25:49;20.20;1.00
5466;DHT22;2755;50.728;7.108;2023-07-13T19:28:36;20.60;1.00
5466;DHT22;2755;50.728;7.108;2023-07-13T19:33:31;20.50;1.00
5466;DHT22;2755;50.728;7.108;2023-07-13T19:35:57;21.30;1.00
5466;DHT22;2755;50.728;7.108;2023-07-13T19:40:52;20.40;1.00
5466;DHT22;2755;50.728;7.108;2023-07-13T19:43:19;20.00;1.00
5466;DHT22;2755;50.728;7.108;2023-07-13T19:45:44;20.00;1.00
5466;DHT22;2755;50.728;7.108;2023-07-13T19:48:10;20.00;1.00
5466;DHT22;2755;50.728;7.108;2023-07-13T19:53:04;19.70;1.00
5466;DHT22;2755;50.728;7.108;2023-07-13T19:55:30;20.20;1.00
5466;DHT22;2755;50.728;7.108;2023-07-13T19:57:56;20.00;1.00
5466;DHT22;2755;50.728;7.108;2023-07-13T20:00:27;19.80;1.00
5466;DHT22;2755;50.728;7.108;2023-07-13T20:05:23;19.60;1.00
5466;DHT22;2755;50.728;7.108;2023-07-13T20:07:54;19.80;1.00
5466;DHT22;2755;50.728;7.108;2023-07-13T20:10:29;19.40;1.00
5466;DHT22;2755;50.728;7.108;2023-07-13T20:12:57;19.40;1.00
5466;DHT22;2755;50.728;7.108;2023-07-13T20:15:27;19.00;1.00
5466;DHT22;2755;50.728;7.108;2023-07-13T20:17:58;19.30;1.00
5466;DHT22;2755;50.728;7.108;2023-07-13T20:22:57;18.70;1.00
5466;DHT22;2755;50.728;7.108;2023-07-13T20:27:59;19.00;1.00
5466;DHT22;2755;50.728;7.108;2023-07-13T20:30:31;19.20;1.00
5466;DHT22;2755;50.728;7.108;2023-07-13T20:33:00;19.10;1.00
5466;DHT22;2755;50.728;7.108;2023-07-13T20:35:32;18.90;1.00
5466;DHT22;2755;50.728;7.108;2023-07-13T20:37:59;18.70;1.00
5466;DHT22;2755;50.728;7.108;2023-07-13T20:40:27;18.60;1.00
5466;DHT22;2755;50.728;7.108;2023-07-13T20:45:30;18.40;1.00
5466;DHT22;2755;50.728;7.108;2023-07-13T20:48:08;18.60;1.00
5466;DHT22;2755;50.728;7.108;2023-07-13T20:53:09;18.50;1.00
5466;DHT22;2755;50.728;7.108;2023-07-13T20:55:37;18.40;1.00
5466;DHT22;2755;50.728;7.108;2023-07-13T21:00:29;18.60;1.00
5466;DHT22;2755;50.728;7.108;2023-07-13T21:03:04;18.30;1.00
5466;DHT22;2755;50.728;7.108;2023-07-13T21:05:36;18.20;1.00
5466;DHT22;2755;50.728;7.108;2023-07-13T21:10:30;18.00;1.00
5466;DHT22;2755;50.728;7.108;2023-07-13T21:12:56;17.80;1.00
5466;DHT22;2755;50.728;7.108;2023-07-13T21:15:27;18.20;1.00
5466;DHT22;2755;50.728;7.108;2023-07-13T21:17:56;17.80;1.00
5466;DHT22;2755;50.728;7.108;2023-07-13T21:20:26;17.90;1.00
5466;DHT22;2755;50.728;7.108;2023-07-13T21:22:52;18.40;1.00
5466;DHT22;2755;50.728;7.108;2023-07-13T21:27:51;17.80;1.00
5466;DHT22;2755;50.728;7.108;2023-07-13T21:30:18;17.40;1.00
5466;DHT22;2755;50.728;7.108;2023-07-13T21:32:47;17.90;1.00
5466;DHT22;2755;50.728;7.108;2023-07-13T21:35:28;18.10;1.00
5466;DHT22;2755;50.728;7.108;2023-07-13T21:40:20;17.00;1.00
5466;DHT22;2755;50.728;7.108;2023-07-13T21:42:47;17.70;1.00
5466;DHT22;2755;50.728;7.108;2023-07-13T21:45:30;17.60;1.00
5466;DHT22;2755;50.728;7.108;2023-07-13T21:47:56;18.00;1.00
5466;DHT22;2755;50.728;7.108;2023-07-13T21:50:38;17.30;1.00
5466;DHT22;2755;50.728;7.108;2023-07-13T21:53:21;21.90;1.00
5466;DHT22;2755;50.728;7.108;2023-07-13T21:55:49;16.70;1.00
5466;DHT22;2755;50.728;7.108;2023-07-13T21:58:33;17.20;1.00
5466;DHT22;2755;50.728;7.108;2023-07-13T22:01:00;17.50;1.00
5466;DHT22;2755;50.728;7.108;2023-07-13T22:03:31;17.60;1.00
5466;DHT22;2755;50.728;7.108;2023-07-13T22:05:59;16.10;1.00
5466;DHT22;2755;50.728;7.108;2023-07-13T22:08:36;17.20;1.00
5466;DHT22;2755;50.728;7.108;2023-07-13T22:11:13;17.30;1.00
5466;DHT22;2755;50.728;7.108;2023-07-13T22:13:39;16.80;1.00
5466;DHT22;2755;50.728;7.108;2023-07-13T22:18:32;16.60;1.00
5466;DHT22;2755;50.728;7.108;2023-07-13T22:20:58;17.10;1.00
5466;DHT22;2755;50.728;7.108;2023-07-13T22:23:25;17.10;1.00
5466;DHT22;2755;50.728;7.108;2023-07-13T22:25:53;16.50;1.00
5466;DHT22;2755;50.728;7.108;2023-07-13T22:28:22;17.00;1.00
5466;DHT22;2755;50.728;7.108;2023-07-13T22:30:53;16.80;1.00
5466;DHT22;2755;50.728;7.108;2023-07-13T22:33:22;16.90;1.00
5466;DHT22;2755;50.728;7.108;2023-07-13T22:35:49;16.90;1.00
5466;DHT22;2755;50.728;7.108;2023-07-13T22:38:22;16.80;1.00
5466;DHT22;2755;50.728;7.108;2023-07-13T22:48:38;16.40;1.00
5466;DHT22;2755;50.728;7.108;2023-07-13T22:51:15;16.60;1.00